KUCY/UCY METAR and TAF weather

Enter ICAO airport designator
Station Type Date Time Source
KUCY METAR 2020/02/24 23:15 UTC NOAA

KUCY 242315Z AUTO 13007KT 9SM OVC005 11/11 A2958 RMK A01


Station Type Date Time Source
KUCY Decoded METAR 2020/02/24 23:15 UTC NOAA

Station name not available
Feb 24, 2020 - 06:15 PM EST / 2020.02.24 2315 UTC
Wind: from the SE (130 degrees) at 8 MPH (7 KT):0
Visibility: 9 mile(s):0
Sky conditions: overcast
Temperature: 51 F (11 C)
Dew Point: 51 F (11 C)
Relative Humidity: 100%
Pressure (altimeter): 29.58 in. Hg (1001 hPa)
ob: KUCY 242315Z AUTO 13007KT 9SM OVC005 11/11 A2958 RMK A01
cycle: 23

Station Type Date Time Source
KUCY TAF UTC NOAA

Error!

Example: see airport list